createdAt,value
2022-08-07T01:18:25.007Z,4.77
2022-08-07T01:21:22.537Z,4.63
2022-08-07T01:23:56.089Z,4.00
2022-08-07T01:26:26.742Z,5.33
2022-08-07T01:28:57.170Z,4.87
2022-08-07T01:31:41.766Z,4.63
2022-08-07T01:34:14.425Z,6.27
2022-08-07T01:36:52.794Z,5.10
2022-08-07T01:39:40.334Z,4.73
2022-08-07T01:42:38.311Z,5.13
2022-08-07T01:45:18.219Z,5.77
2022-08-07T01:48:18.254Z,5.23
2022-08-07T01:50:42.899Z,5.37
2022-08-07T01:53:21.863Z,5.50
2022-08-07T01:56:29.015Z,6.70
2022-08-07T01:59:15.729Z,6.83
2022-08-07T02:02:02.344Z,6.17
2022-08-07T02:04:55.910Z,5.60
2022-08-07T02:07:44.942Z,5.30
2022-08-07T02:10:26.631Z,4.27
2022-08-07T02:13:07.815Z,5.17
2022-08-07T02:15:43.589Z,4.80
2022-08-07T02:18:21.260Z,5.27
2022-08-07T02:21:06.332Z,6.00
2022-08-07T02:23:43.211Z,6.10
2022-08-07T02:26:33.029Z,5.50
2022-08-07T02:29:13.647Z,5.50
2022-08-07T02:31:44.772Z,6.03
2022-08-07T02:34:19.495Z,5.77
2022-08-07T02:36:50.023Z,5.70
2022-08-07T02:39:42.568Z,5.03
2022-08-07T02:42:14.952Z,4.80
2022-08-07T02:44:55.640Z,4.13
2022-08-07T02:47:35.051Z,4.30
2022-08-07T02:50:16.328Z,5.10
2022-08-07T02:53:00.930Z,4.50
2022-08-07T02:56:03.430Z,4.27
2022-08-07T02:58:47.360Z,4.53
2022-08-07T03:01:35.061Z,3.73
2022-08-07T03:04:12.562Z,4.00
2022-08-07T03:06:48.467Z,4.30
2022-08-07T03:09:42.286Z,4.33
2022-08-07T03:12:22.499Z,3.43
2022-08-07T03:15:07.472Z,3.10
2022-08-07T03:17:53.530Z,3.00
2022-08-07T03:20:29.145Z,2.20
2022-08-07T03:23:04.211Z,2.00
2022-08-07T03:25:40.394Z,1.90
2022-08-07T03:28:38.250Z,2.50
2022-08-07T03:31:24.714Z,2.43
2022-08-07T03:34:04.449Z,2.47
2022-08-07T03:36:38.175Z,2.40
2022-08-07T03:39:11.838Z,3.00
2022-08-07T03:41:50.711Z,2.60
2022-08-07T03:44:34.259Z,3.73
2022-08-07T03:47:14.693Z,3.63
2022-08-07T03:49:48.077Z,2.67
2022-08-07T03:52:27.612Z,2.70
2022-08-07T03:55:06.580Z,2.90
2022-08-07T03:58:34.531Z,2.70
2022-08-07T04:00:36.523Z,3.30
2022-08-07T04:03:13.472Z,3.37
2022-08-07T04:05:45.577Z,3.30
2022-08-07T04:08:18.439Z,3.60
2022-08-07T04:12:24.441Z,4.40
2022-08-07T04:14:10.457Z,3.70
2022-08-07T04:16:58.622Z,3.90
2022-08-07T04:19:50.904Z,3.67
2022-08-07T04:22:23.228Z,4.77
2022-08-07T04:25:01.068Z,4.37
2022-08-07T04:27:43.870Z,4.53
2022-08-07T04:30:43.401Z,6.43
2022-08-07T04:33:16.003Z,4.73
2022-08-07T04:35:50.217Z,4.93
2022-08-07T04:38:26.713Z,6.50
2022-08-07T04:40:57.855Z,5.77
2022-08-07T04:44:10.241Z,4.93
2022-08-07T04:46:36.038Z,5.90
2022-08-07T04:49:37.761Z,5.57
2022-08-07T04:52:27.551Z,5.27
2022-08-07T04:55:01.715Z,5.70
2022-08-07T04:58:09.706Z,6.53
2022-08-07T05:01:00.410Z,6.00
2022-08-07T05:04:07.909Z,7.13
2022-08-07T05:06:43.573Z,7.53
2022-08-07T05:09:46.282Z,7.97
2022-08-07T05:12:26.539Z,8.90
2022-08-07T05:15:23.016Z,9.17
2022-08-07T05:18:08.659Z,9.50
2022-08-07T05:20:44.444Z,10.50
2022-08-07T05:23:30.960Z,11.03
2022-08-07T05:26:13.328Z,10.20
2022-08-07T05:28:55.795Z,10.30
2022-08-07T05:31:34.941Z,10.60
2022-08-07T05:34:10.727Z,10.70
2022-08-07T05:36:43.116Z,10.57
2022-08-07T05:40:06.529Z,10.77
2022-08-07T05:42:15.530Z,12.23
2022-08-07T05:45:26.141Z,11.27
2022-08-07T05:48:02.446Z,12.57
2022-08-07T05:50:34.787Z,11.87
2022-08-07T05:54:09.384Z,12.47
2022-08-07T05:56:05.685Z,13.50
2022-08-07T05:58:52.617Z,12.63
2022-08-07T06:01:35.919Z,12.37
2022-08-07T06:04:09.450Z,12.43
2022-08-07T06:06:46.123Z,11.50
2022-08-07T06:09:18.732Z,13.07
2022-08-07T06:12:01.548Z,12.33
2022-08-07T06:14:40.076Z,11.70
2022-08-07T06:17:22.431Z,12.07
2022-08-07T06:20:12.800Z,13.03
2022-08-07T06:23:02.326Z,11.93
2022-08-07T06:25:54.086Z,11.47
2022-08-07T06:28:28.053Z,12.53
2022-08-07T06:31:05.947Z,12.00
2022-08-07T06:33:36.929Z,12.77
2022-08-07T06:36:13.368Z,12.80
2022-08-07T06:38:58.556Z,12.13
2022-08-07T06:42:01.984Z,11.27
2022-08-07T06:44:36.669Z,11.60
2022-08-07T06:47:16.956Z,12.57
2022-08-07T06:49:58.476Z,9.83
2022-08-07T06:52:36.581Z,9.77
2022-08-07T06:55:34.102Z,10.57
2022-08-07T06:58:02.295Z,10.17
2022-08-07T07:00:35.106Z,10.37
2022-08-07T07:03:08.797Z,11.30
2022-08-07T07:06:04.708Z,11.40
2022-08-07T07:08:29.988Z,9.57
2022-08-07T07:11:14.479Z,9.23
2022-08-07T07:13:58.277Z,9.20
2022-08-07T07:16:39.194Z,8.67
2022-08-07T07:19:57.540Z,8.60
2022-08-07T07:22:35.913Z,9.00
2022-08-07T07:25:14.024Z,9.67
2022-08-07T07:28:02.730Z,9.67
2022-08-07T07:30:40.099Z,9.00
2022-08-07T07:33:11.637Z,9.37
2022-08-07T07:36:04.059Z,7.40
2022-08-07T07:38:34.823Z,7.83
2022-08-07T07:41:08.833Z,9.27
2022-08-07T07:44:13.714Z,8.20
2022-08-07T07:46:38.505Z,7.10
2022-08-07T07:50:36.312Z,8.30
2022-08-07T07:52:16.475Z,9.27
2022-08-07T07:54:50.805Z,9.03
2022-08-07T07:57:51.573Z,7.27
2022-08-07T08:00:20.787Z,7.70
2022-08-07T08:03:06.049Z,7.90
2022-08-07T08:05:54.428Z,7.63
2022-08-07T08:08:35.058Z,7.00
2022-08-07T08:11:05.108Z,7.40
2022-08-07T08:13:53.156Z,7.00
2022-08-07T08:16:31.186Z,6.23
2022-08-07T08:19:17.271Z,6.83
2022-08-07T08:22:11.192Z,8.23
2022-08-07T08:25:09.431Z,5.77
2022-08-07T08:27:56.891Z,6.37
2022-08-07T08:30:27.524Z,6.20
2022-08-07T08:33:03.762Z,6.43
2022-08-07T08:35:39.541Z,6.60
2022-08-07T08:38:18.081Z,6.00
2022-08-07T08:40:57.348Z,6.40
2022-08-07T08:43:42.854Z,6.03
2022-08-07T08:46:30.184Z,7.33
2022-08-07T08:49:05.858Z,6.13
2022-08-07T08:51:49.929Z,6.23
2022-08-07T08:54:39.544Z,5.97
2022-08-07T08:57:30.410Z,6.27
2022-08-07T09:00:05.710Z,5.87
2022-08-07T09:02:46.200Z,5.00
2022-08-07T09:05:38.057Z,4.80
2022-08-07T09:08:30.617Z,4.87
2022-08-07T09:11:24.802Z,5.17
2022-08-07T09:14:12.911Z,4.70
2022-08-07T09:17:01.612Z,4.83
2022-08-07T09:19:52.922Z,5.00
2022-08-07T09:24:30.716Z,5.13
2022-08-07T09:25:53.972Z,4.43
2022-08-07T09:30:01.264Z,5.33
2022-08-07T09:31:48.654Z,4.80
2022-08-07T09:34:26.311Z,4.67
2022-08-07T09:37:05.335Z,4.63
2022-08-07T09:39:54.756Z,6.17
2022-08-07T09:42:41.625Z,4.00
2022-08-07T09:47:49.909Z,3.97
2022-08-07T09:48:20.803Z,4.07
2022-08-07T09:51:04.442Z,4.33
2022-08-07T09:53:48.828Z,4.23
2022-08-07T09:56:57.661Z,4.10
2022-08-07T10:00:00.346Z,4.00
2022-08-07T10:02:57.784Z,3.67
2022-08-07T10:06:12.045Z,4.07
2022-08-07T10:09:18.133Z,4.47
2022-08-07T10:12:21.466Z,4.93
2022-08-07T10:15:15.481Z,3.63
2022-08-07T10:18:12.021Z,5.43
2022-08-07T10:20:55.835Z,3.97
2022-08-07T10:24:06.409Z,4.90
2022-08-07T10:26:53.266Z,4.00
2022-08-07T10:30:03.750Z,5.20
2022-08-07T10:33:01.133Z,3.27
2022-08-07T10:35:55.183Z,3.57
2022-08-07T10:38:48.857Z,3.77
2022-08-07T10:41:51.224Z,4.10
2022-08-07T10:44:28.870Z,3.60
2022-08-07T10:47:26.926Z,3.83
2022-08-07T10:50:15.179Z,4.20
2022-08-07T10:52:56.565Z,3.87
2022-08-07T10:55:38.941Z,3.93
2022-08-07T10:58:40.748Z,4.43
2022-08-07T11:01:35.248Z,4.10
2022-08-07T11:04:37.689Z,4.23
2022-08-07T11:07:56.977Z,4.13
2022-08-07T11:10:18.322Z,3.87
2022-08-07T11:13:02.145Z,4.83
2022-08-07T11:15:40.192Z,3.83
2022-08-07T11:18:20.484Z,3.67
2022-08-07T11:21:03.191Z,3.87
2022-08-07T11:23:48.455Z,3.57
2022-08-07T11:26:28.869Z,4.17
2022-08-07T11:29:13.272Z,4.40
2022-08-07T11:32:07.005Z,3.50
2022-08-07T11:34:42.476Z,3.37
2022-08-07T11:37:38.538Z,3.43
2022-08-07T11:40:28.183Z,3.10
2022-08-07T11:43:04.067Z,3.43
2022-08-07T11:45:53.196Z,4.40
2022-08-07T11:49:50.131Z,3.03
2022-08-07T11:51:58.717Z,3.07
2022-08-07T11:54:54.762Z,3.23
2022-08-07T11:58:00.849Z,3.20
2022-08-07T12:00:31.058Z,3.00
2022-08-07T12:03:41.968Z,3.87
2022-08-07T12:06:37.403Z,3.13
2022-08-07T12:09:23.357Z,3.00
2022-08-07T12:12:09.133Z,4.07
2022-08-07T12:14:56.209Z,3.10
2022-08-07T12:17:37.570Z,3.10
2022-08-07T12:20:30.409Z,3.17
2022-08-07T12:24:05.982Z,2.97
2022-08-07T12:26:35.497Z,2.60
2022-08-07T12:29:13.521Z,2.43
2022-08-07T12:31:53.067Z,3.07
2022-08-07T12:34:37.903Z,3.80
2022-08-07T12:37:27.876Z,4.27
2022-08-07T12:40:00.103Z,3.00
2022-08-07T12:42:31.824Z,3.33
2022-08-07T12:45:06.690Z,2.43
2022-08-07T12:47:49.095Z,2.57
2022-08-07T12:50:33.819Z,2.97
2022-08-07T12:53:18.178Z,3.87
2022-08-07T12:56:03.281Z,3.37
2022-08-07T12:58:39.258Z,2.67
2022-08-07T13:01:19.453Z,2.80
2022-08-07T13:04:18.909Z,3.20
2022-08-07T13:08:11.594Z,2.80
2022-08-07T13:10:39.875Z,2.80
2022-08-07T13:13:47.236Z,2.60
2022-08-07T13:16:25.766Z,2.80
2022-08-07T13:19:05.889Z,2.87
2022-08-07T13:22:01.962Z,2.30
2022-08-07T13:24:43.949Z,2.77
2022-08-07T13:27:33.252Z,2.10
2022-08-07T13:30:19.274Z,2.30
2022-08-07T13:34:14.920Z,2.13
2022-08-07T13:36:06.799Z,2.30
2022-08-07T13:38:45.539Z,3.03
2022-08-07T13:41:30.212Z,2.63
2022-08-07T13:44:10.721Z,2.70
2022-08-07T13:46:49.662Z,4.90
2022-08-07T13:50:36.631Z,2.60
2022-08-07T13:52:25.933Z,2.70
2022-08-07T13:55:03.595Z,2.53
2022-08-07T13:57:38.579Z,3.47
2022-08-07T14:00:26.005Z,6.07
2022-08-07T14:02:59.007Z,3.00
2022-08-07T14:05:38.046Z,2.60
2022-08-07T14:08:09.154Z,3.10
2022-08-07T14:10:42.198Z,2.60
2022-08-07T14:13:18.148Z,2.67
2022-08-07T14:16:01.256Z,2.83
2022-08-07T14:18:33.613Z,3.20
2022-08-07T14:21:20.759Z,3.47
2022-08-07T14:24:00.885Z,2.60
2022-08-07T14:26:38.956Z,3.23
2022-08-07T14:30:06.547Z,3.13
2022-08-07T14:32:04.068Z,2.53
2022-08-07T14:34:45.736Z,3.47
2022-08-07T14:37:17.144Z,4.73
2022-08-07T14:40:15.559Z,3.20
2022-08-07T14:43:55.499Z,4.60
2022-08-07T14:45:46.689Z,3.13
2022-08-07T14:48:27.218Z,2.87
2022-08-07T14:51:00.152Z,2.50
2022-08-07T14:54:05.696Z,3.10
2022-08-07T14:56:33.488Z,2.73
2022-08-07T15:00:05.128Z,3.27
2022-08-07T15:02:34.398Z,2.73
2022-08-07T15:05:20.154Z,2.70
2022-08-07T15:07:52.227Z,2.80
2022-08-07T15:10:26.300Z,2.90
2022-08-07T15:12:59.125Z,3.43
2022-08-07T15:15:38.460Z,3.23
2022-08-07T15:21:45.113Z,2.90
2022-08-07T15:25:16.235Z,3.27
2022-08-07T15:26:57.236Z,3.10
2022-08-07T15:32:39.792Z,3.77
2022-08-07T15:35:14.715Z,2.80
2022-08-07T15:38:17.846Z,3.30
2022-08-07T15:41:00.087Z,2.70
2022-08-07T15:43:29.885Z,3.10
2022-08-07T15:46:31.901Z,3.07
2022-08-07T15:49:14.397Z,5.80
2022-08-07T15:54:34.534Z,2.93
2022-08-07T15:57:27.904Z,3.33
2022-08-07T16:00:04.105Z,2.93
2022-08-07T16:02:40.822Z,2.70
2022-08-07T16:05:15.525Z,3.20
2022-08-07T16:08:32.326Z,2.97
2022-08-07T16:10:42.538Z,3.57
2022-08-07T16:13:58.983Z,2.73
2022-08-07T16:17:15.901Z,3.40
2022-08-07T16:20:04.239Z,3.57
2022-08-07T16:22:54.595Z,3.83
2022-08-07T16:25:52.705Z,3.33
2022-08-07T16:30:07.341Z,3.50
2022-08-07T16:31:57.972Z,3.33
2022-08-07T16:34:40.557Z,3.10
2022-08-07T16:38:05.856Z,3.10
2022-08-07T16:41:05.030Z,2.90
2022-08-07T16:44:46.405Z,3.47
2022-08-07T16:47:42.282Z,2.70
2022-08-07T16:50:35.887Z,3.30
2022-08-07T16:54:02.907Z,5.13
2022-08-07T16:56:23.292Z,3.17
2022-08-07T16:59:14.793Z,3.20
2022-08-07T17:02:00.170Z,2.93
2022-08-07T17:04:57.983Z,2.70
2022-08-07T17:07:55.072Z,3.33
2022-08-07T17:10:33.623Z,3.33
2022-08-07T17:13:41.645Z,3.13
2022-08-07T17:16:26.095Z,5.07
2022-08-07T17:19:15.723Z,3.43
2022-08-07T17:21:52.316Z,3.03
2022-08-07T17:24:52.142Z,3.60
2022-08-07T17:27:32.349Z,3.37
2022-08-07T17:30:15.380Z,3.83
2022-08-07T17:34:33.402Z,3.93
2022-08-07T17:35:59.619Z,3.10
2022-08-07T17:38:36.675Z,3.50
2022-08-07T17:42:04.811Z,4.33
2022-08-07T17:44:16.451Z,3.20
2022-08-07T17:47:08.809Z,3.77
2022-08-07T17:49:54.337Z,3.07
2022-08-07T17:52:30.682Z,3.50
2022-08-07T17:55:06.472Z,5.60
2022-08-07T17:57:59.208Z,3.90
2022-08-07T18:00:49.331Z,2.87
2022-08-07T18:03:28.444Z,3.80
2022-08-07T18:06:38.613Z,3.27
2022-08-07T18:09:08.675Z,3.23
2022-08-07T18:12:17.315Z,3.13
2022-08-07T18:14:46.045Z,3.73
2022-08-07T18:18:46.315Z,5.00
2022-08-07T18:21:08.041Z,4.40
2022-08-07T18:23:42.286Z,3.63
2022-08-07T18:26:16.414Z,3.27
2022-08-07T18:29:02.892Z,3.07
2022-08-07T18:31:50.084Z,3.33
2022-08-07T18:34:53.369Z,2.97
2022-08-07T18:38:59.709Z,3.33
2022-08-07T18:40:42.951Z,2.80
2022-08-07T18:43:42.492Z,3.37
2022-08-07T18:46:25.895Z,3.13
2022-08-07T18:50:19.055Z,3.40
2022-08-07T18:52:37.376Z,3.47
2022-08-07T18:55:40.746Z,3.33
2022-08-07T18:58:29.903Z,3.43
2022-08-07T19:02:19.456Z,3.60
2022-08-07T19:04:09.843Z,3.17
2022-08-07T19:06:51.262Z,3.30
2022-08-07T19:09:57.114Z,3.20
2022-08-07T19:12:26.494Z,4.60
2022-08-07T19:16:03.087Z,4.20
2022-08-07T19:18:34.204Z,2.87
2022-08-07T19:21:13.775Z,3.10
2022-08-07T19:24:12.786Z,3.97
2022-08-07T19:28:56.587Z,2.80
2022-08-07T19:30:56.577Z,2.87
2022-08-07T19:32:47.474Z,3.33
2022-08-07T19:35:28.048Z,3.10
2022-08-07T19:38:15.948Z,3.43
2022-08-07T19:40:51.895Z,3.13
2022-08-07T19:43:44.145Z,3.93
2022-08-07T19:46:15.745Z,4.10
2022-08-07T19:48:53.456Z,3.43
2022-08-07T19:51:50.730Z,3.20
2022-08-07T19:54:31.863Z,3.30
2022-08-07T19:58:01.869Z,3.50
2022-08-07T20:00:09.033Z,3.90
2022-08-07T20:02:52.258Z,3.90
2022-08-07T20:05:28.654Z,4.17
2022-08-07T20:08:00.945Z,3.63
2022-08-07T20:10:54.655Z,3.37
2022-08-07T20:13:34.008Z,3.57
2022-08-07T20:16:04.045Z,3.70
2022-08-07T20:18:37.182Z,3.63
2022-08-07T20:21:14.241Z,3.80
2022-08-07T20:23:54.269Z,4.03
2022-08-07T20:26:29.916Z,4.13
2022-08-07T20:29:10.182Z,4.53
2022-08-07T20:31:47.952Z,4.70
2022-08-07T20:34:46.544Z,5.93
2022-08-07T20:37:15.471Z,6.83
2022-08-07T20:40:03.624Z,5.73
2022-08-07T20:42:36.707Z,5.50
2022-08-07T20:45:32.840Z,4.97
2022-08-07T20:47:58.626Z,4.70
2022-08-07T20:50:30.419Z,4.27
2022-08-07T20:53:03.380Z,4.30
2022-08-07T20:55:35.964Z,4.40
2022-08-07T20:58:19.160Z,4.00
2022-08-07T21:00:56.147Z,4.73
2022-08-07T21:03:28.921Z,4.00
2022-08-07T21:06:03.602Z,4.70
2022-08-07T21:09:01.139Z,4.87
2022-08-07T21:11:49.967Z,4.53
2022-08-07T21:14:32.553Z,4.40
2022-08-07T21:18:00.820Z,4.33
2022-08-07T21:20:04.895Z,4.67
2022-08-07T21:22:37.861Z,5.13
2022-08-07T21:25:14.620Z,4.47
2022-08-07T21:28:01.688Z,4.33
2022-08-07T21:30:38.688Z,4.37
2022-08-07T21:33:15.841Z,4.20
2022-08-07T21:36:06.088Z,4.40
2022-08-07T21:38:54.440Z,4.67
2022-08-07T21:41:38.154Z,6.37
2022-08-07T21:44:32.700Z,4.80
2022-08-07T21:47:18.111Z,4.30
2022-08-07T21:50:02.881Z,4.97
2022-08-07T21:52:47.768Z,6.07
2022-08-07T21:55:29.793Z,4.97
2022-08-07T21:58:32.118Z,5.67
2022-08-07T22:01:08.481Z,8.03
2022-08-07T22:03:47.438Z,4.70
2022-08-07T22:06:29.998Z,6.17
2022-08-07T22:09:06.966Z,4.60
2022-08-07T22:12:05.376Z,4.53
2022-08-07T22:14:59.483Z,4.23
2022-08-07T22:17:38.588Z,5.53
2022-08-07T22:20:23.776Z,5.07
2022-08-07T22:23:02.600Z,6.00
2022-08-07T22:25:42.349Z,5.17
2022-08-07T22:28:31.233Z,5.87
2022-08-07T22:31:07.778Z,5.77
2022-08-07T22:33:56.748Z,4.80
2022-08-07T22:36:46.448Z,5.33
2022-08-07T22:39:51.732Z,5.77
2022-08-07T22:42:25.597Z,4.73
2022-08-07T22:44:59.515Z,5.63
2022-08-07T22:47:54.920Z,5.37
2022-08-07T22:50:46.823Z,5.60
2022-08-07T22:54:06.563Z,5.67
2022-08-07T22:56:34.948Z,5.10
2022-08-07T22:59:32.575Z,5.10
2022-08-07T23:02:14.543Z,5.30
2022-08-07T23:06:09.091Z,5.10
2022-08-07T23:08:35.859Z,5.07
2022-08-07T23:11:20.726Z,6.47
2022-08-07T23:14:15.309Z,6.60
2022-08-07T23:17:08.655Z,5.60
2022-08-07T23:20:17.045Z,4.70
2022-08-07T23:23:01.034Z,4.93
2022-08-07T23:25:42.403Z,5.20
2022-08-07T23:28:28.900Z,5.47
2022-08-07T23:31:42.735Z,5.10
2022-08-07T23:34:39.530Z,5.37
2022-08-07T23:37:33.653Z,5.67
2022-08-07T23:40:19.881Z,5.50
2022-08-07T23:42:58.547Z,6.37
2022-08-07T23:46:02.585Z,4.63
2022-08-07T23:48:41.800Z,4.77
2022-08-07T23:53:00.536Z,4.90
2022-08-07T23:54:36.468Z,5.13
2022-08-07T23:57:18.912Z,5.33
